createdAt,value
2023-04-21T00:08:21.791Z,59.56
2023-04-21T00:18:48.649Z,59.44
2023-04-21T00:29:14.226Z,59.40
2023-04-21T00:39:39.800Z,59.39
2023-04-21T00:50:06.550Z,59.64
2023-04-21T01:00:33.270Z,59.49
2023-04-21T01:10:59.172Z,59.62
2023-04-21T01:21:25.178Z,59.36
2023-04-21T01:31:50.783Z,59.40
2023-04-21T01:42:16.895Z,59.71
2023-04-21T01:52:42.690Z,59.66
2023-04-21T02:03:09.069Z,59.39
2023-04-21T02:13:34.807Z,59.58
2023-04-21T02:24:00.515Z,60.08
2023-04-21T02:34:46.807Z,59.75
2023-04-21T02:45:14.389Z,59.62
2023-04-21T02:55:39.878Z,60.20
2023-04-21T03:06:07.642Z,60.20
2023-04-21T03:16:33.777Z,60.28
2023-04-21T03:26:59.907Z,60.07
2023-04-21T03:37:26.094Z,60.58
2023-04-21T03:47:54.009Z,60.30
2023-04-21T03:58:20.005Z,59.87
2023-04-21T04:08:45.674Z,59.90
2023-04-21T04:19:12.535Z,60.00
2023-04-21T04:29:38.236Z,60.21
2023-04-21T04:40:06.461Z,60.26
2023-04-21T04:50:32.316Z,60.47
2023-04-21T05:00:57.755Z,60.75
2023-04-21T05:11:23.770Z,61.43
2023-04-21T05:21:50.029Z,62.52
2023-04-21T05:32:16.153Z,63.02
2023-04-21T05:42:41.691Z,63.29
2023-04-21T05:53:07.401Z,63.30
2023-04-21T06:03:35.162Z,63.54
2023-04-21T06:14:01.936Z,63.54
2023-04-21T06:24:35.125Z,62.41
2023-04-21T06:35:00.907Z,61.27
2023-04-21T06:45:27.480Z,60.06
2023-04-21T06:55:53.811Z,58.70
2023-04-21T07:06:19.764Z,57.41
2023-04-21T07:16:45.774Z,55.43
2023-04-21T07:27:11.349Z,53.60
2023-04-21T07:37:37.210Z,52.98
2023-04-21T07:48:02.942Z,51.60
2023-04-21T07:58:29.073Z,50.26
2023-04-21T08:08:56.121Z,49.07
2023-04-21T08:19:22.319Z,46.11
2023-04-21T08:29:50.737Z,45.54
2023-04-21T08:40:35.990Z,45.49
2023-04-21T08:51:03.046Z,43.67
2023-04-21T09:01:28.640Z,43.12
2023-04-21T09:12:00.150Z,43.25
2023-04-21T09:22:30.569Z,41.75
2023-04-21T09:32:59.558Z,41.03
2023-04-21T09:43:25.050Z,41.05
2023-04-21T09:53:54.306Z,39.14
2023-04-21T10:04:21.880Z,38.31
2023-04-21T10:14:51.500Z,37.57
2023-04-21T10:25:17.325Z,38.14
2023-04-21T10:36:05.111Z,37.79
2023-04-21T10:46:36.306Z,37.26
2023-04-21T10:57:03.368Z,37.38
2023-04-21T11:07:29.546Z,37.15
2023-04-21T11:17:55.892Z,35.85
2023-04-21T11:28:24.891Z,35.93
2023-04-21T11:38:51.375Z,35.95
2023-04-21T11:49:18.518Z,35.82
2023-04-21T11:59:46.548Z,35.00
2023-04-21T12:10:14.760Z,35.41
2023-04-21T12:20:40.453Z,35.63
2023-04-21T12:31:06.451Z,35.57
2023-04-21T12:41:32.190Z,33.67
2023-04-21T12:51:57.631Z,33.61
2023-04-21T13:02:23.825Z,33.42
2023-04-21T13:12:49.369Z,33.14
2023-04-21T13:23:16.405Z,32.85
2023-04-21T13:33:42.923Z,33.42
2023-04-21T13:44:08.793Z,33.42
2023-04-21T13:54:35.081Z,33.25
2023-04-21T14:05:01.188Z,33.56
2023-04-21T14:15:27.308Z,33.20
2023-04-21T14:25:54.810Z,33.28
2023-04-21T14:36:21.196Z,32.41
2023-04-21T14:46:53.732Z,32.84
2023-04-21T14:57:32.028Z,33.58
2023-04-21T15:07:57.651Z,33.89
2023-04-21T15:18:23.545Z,33.68
2023-04-21T15:28:49.512Z,32.69
2023-04-21T15:39:15.589Z,32.67
2023-04-21T15:49:41.589Z,32.19
2023-04-21T16:00:10.414Z,33.15
2023-04-21T16:10:36.297Z,33.12
2023-04-21T16:21:02.521Z,32.84
2023-04-21T16:31:28.297Z,33.21
2023-04-21T16:41:54.308Z,33.44
2023-04-21T16:52:20.240Z,33.56
2023-04-21T17:02:46.379Z,33.44
2023-04-21T17:13:12.398Z,33.69
2023-04-21T17:23:38.565Z,33.90
2023-04-21T17:34:04.514Z,33.60
2023-04-21T17:44:30.077Z,33.61
2023-04-21T17:54:56.163Z,33.62
2023-04-21T18:05:21.695Z,33.63
2023-04-21T18:15:47.702Z,33.76
2023-04-21T18:26:13.800Z,34.20
2023-04-21T18:36:39.894Z,34.63
2023-04-21T18:47:06.265Z,35.46
2023-04-21T18:57:32.235Z,36.18
2023-04-21T19:07:58.141Z,36.50
2023-04-21T19:18:24.123Z,36.89
2023-04-21T19:28:49.710Z,38.29
2023-04-21T19:39:16.087Z,39.85
2023-04-21T19:49:42.278Z,41.27
2023-04-21T20:00:11.915Z,42.72
2023-04-21T20:10:42.135Z,44.38
2023-04-21T20:21:08.216Z,45.09
2023-04-21T20:31:34.521Z,45.22
2023-04-21T20:42:12.424Z,45.45
2023-04-21T20:52:41.103Z,45.72
2023-04-21T21:03:10.199Z,46.58
2023-04-21T21:13:36.335Z,46.37
2023-04-21T21:24:02.174Z,46.24
2023-04-21T21:34:28.302Z,46.90
2023-04-21T21:44:53.827Z,47.72
2023-04-21T21:55:19.745Z,48.23
2023-04-21T22:05:46.071Z,49.01
2023-04-21T22:16:11.871Z,49.40
2023-04-21T22:26:37.824Z,49.69
2023-04-21T22:37:05.660Z,49.93
2023-04-21T22:47:31.359Z,50.34
2023-04-21T22:57:57.027Z,50.60
2023-04-21T23:08:23.121Z,50.89
2023-04-21T23:18:48.867Z,51.17
2023-04-21T23:29:14.629Z,51.49
2023-04-21T23:39:40.689Z,51.69
2023-04-21T23:50:07.251Z,51.63
